Terminal Aerodrome Forecast
Issued by NWS

Home | Current Version | Previous Version | Text Only | Print | Product List | Glossary On
Versions: 1 2 3 4 5 6 7 8 9 10 11 12 13 14 15 16 17 18 19 20 21 22 23 24 25 26 27 28
000
FTUS46 KMTR 280312 AAA
TAFSFO
TAF AMD
KSFO 280312Z 2803/2906 28020KT P6SM SKC
     FM280400 28015KT P6SM SKC
     FM280600 28010KT P6SM SKC
     FM281300 28005KT P6SM SKC
     FM281500 04004KT P6SM SKC
     FM282100 30017G24KT P6SM SKC
     FM290400 28015KT P6SM SKC=

USA.gov is the U.S. government's official web portal to all federal, state and local government web resources and services.